sensor_id;sensor_type;location;lat;lon;timestamp;P1;durP1;ratioP1;P2;durP2;ratioP2
11344;SDS011;5727;42.600;23.028;2023-02-28T00:01:08;23.17;;;15.17;;
11344;SDS011;5727;42.600;23.028;2023-02-28T00:03:35;22.70;;;14.53;;
11344;SDS011;5727;42.600;23.028;2023-02-28T00:06:02;23.57;;;14.70;;
11344;SDS011;5727;42.600;23.028;2023-02-28T00:08:30;20.57;;;13.77;;
11344;SDS011;5727;42.600;23.028;2023-02-28T00:11:01;21.30;;;15.37;;
11344;SDS011;5727;42.600;23.028;2023-02-28T00:13:29;19.27;;;13.37;;
11344;SDS011;5727;42.600;23.028;2023-02-28T00:15:59;15.97;;;11.53;;
11344;SDS011;5727;42.600;23.028;2023-02-28T00:18:26;17.27;;;12.20;;
11344;SDS011;5727;42.600;23.028;2023-02-28T00:20:53;15.53;;;11.33;;
11344;SDS011;5727;42.600;23.028;2023-02-28T00:23:20;20.13;;;11.93;;
11344;SDS011;5727;42.600;23.028;2023-02-28T00:25:46;19.00;;;11.10;;
11344;SDS011;5727;42.600;23.028;2023-02-28T00:28:15;17.10;;;10.60;;
11344;SDS011;5727;42.600;23.028;2023-02-28T00:30:42;13.17;;;10.40;;
11344;SDS011;5727;42.600;23.028;2023-02-28T00:33:09;14.97;;;10.03;;
11344;SDS011;5727;42.600;23.028;2023-02-28T00:35:36;12.40;;;10.23;;
11344;SDS011;5727;42.600;23.028;2023-02-28T00:38:03;15.97;;;11.13;;
11344;SDS011;5727;42.600;23.028;2023-02-28T00:40:30;16.80;;;10.40;;
11344;SDS011;5727;42.600;23.028;2023-02-28T00:42:56;17.07;;;12.07;;
11344;SDS011;5727;42.600;23.028;2023-02-28T00:45:25;15.23;;;10.90;;
11344;SDS011;5727;42.600;23.028;2023-02-28T00:47:51;16.63;;;11.87;;
11344;SDS011;5727;42.600;23.028;2023-02-28T00:50:19;13.73;;;10.50;;
11344;SDS011;5727;42.600;23.028;2023-02-28T00:52:47;11.93;;;10.07;;
11344;SDS011;5727;42.600;23.028;2023-02-28T00:55:13;11.87;;;9.60;;
11344;SDS011;5727;42.600;23.028;2023-02-28T00:57:40;12.07;;;7.67;;
11344;SDS011;5727;42.600;23.028;2023-02-28T01:00:08;11.00;;;8.10;;
11344;SDS011;5727;42.600;23.028;2023-02-28T01:02:37;12.00;;;8.50;;
11344;SDS011;5727;42.600;23.028;2023-02-28T01:05:04;12.57;;;9.70;;
11344;SDS011;5727;42.600;23.028;2023-02-28T01:07:31;16.40;;;9.43;;
11344;SDS011;5727;42.600;23.028;2023-02-28T01:09:58;14.77;;;10.17;;
11344;SDS011;5727;42.600;23.028;2023-02-28T01:12:25;14.67;;;9.63;;
11344;SDS011;5727;42.600;23.028;2023-02-28T01:14:51;18.27;;;9.57;;
11344;SDS011;5727;42.600;23.028;2023-02-28T01:17:18;17.73;;;10.97;;
11344;SDS011;5727;42.600;23.028;2023-02-28T01:19:46;20.13;;;11.77;;
11344;SDS011;5727;42.600;23.028;2023-02-28T01:22:13;19.33;;;12.57;;
11344;SDS011;5727;42.600;23.028;2023-02-28T01:24:40;21.13;;;11.70;;
11344;SDS011;5727;42.600;23.028;2023-02-28T01:27:06;17.37;;;11.43;;
11344;SDS011;5727;42.600;23.028;2023-02-28T01:29:33;18.47;;;11.37;;
11344;SDS011;5727;42.600;23.028;2023-02-28T01:32:00;17.83;;;10.70;;
11344;SDS011;5727;42.600;23.028;2023-02-28T01:34:26;23.43;;;12.90;;
11344;SDS011;5727;42.600;23.028;2023-02-28T01:36:55;18.57;;;12.23;;
11344;SDS011;5727;42.600;23.028;2023-02-28T01:39:23;17.97;;;9.97;;
11344;SDS011;5727;42.600;23.028;2023-02-28T01:41:50;17.37;;;10.17;;
11344;SDS011;5727;42.600;23.028;2023-02-28T01:47:22;18.30;;;10.87;;
11344;SDS011;5727;42.600;23.028;2023-02-28T01:49:51;19.73;;;11.03;;
11344;SDS011;5727;42.600;23.028;2023-02-28T01:52:20;18.47;;;11.37;;
11344;SDS011;5727;42.600;23.028;2023-02-28T01:54:51;27.80;;;13.53;;
11344;SDS011;5727;42.600;23.028;2023-02-28T01:57:20;46.20;;;14.00;;
11344;SDS011;5727;42.600;23.028;2023-02-28T01:59:50;24.33;;;13.70;;
11344;SDS011;5727;42.600;23.028;2023-02-28T02:02:21;33.33;;;13.47;;
11344;SDS011;5727;42.600;23.028;2023-02-28T02:04:50;34.57;;;12.70;;
11344;SDS011;5727;42.600;23.028;2023-02-28T02:07:22;25.33;;;11.97;;
11344;SDS011;5727;42.600;23.028;2023-02-28T02:09:56;18.70;;;10.93;;
11344;SDS011;5727;42.600;23.028;2023-02-28T02:12:27;14.77;;;10.23;;
11344;SDS011;5727;42.600;23.028;2023-02-28T02:15:13;23.17;;;10.93;;
11344;SDS011;5727;42.600;23.028;2023-02-28T02:17:48;26.27;;;11.13;;
11344;SDS011;5727;42.600;23.028;2023-02-28T02:20:32;33.67;;;12.00;;
11344;SDS011;5727;42.600;23.028;2023-02-28T02:23:44;36.17;;;12.93;;
11344;SDS011;5727;42.600;23.028;2023-02-28T02:26:33;51.03;;;12.67;;
11344;SDS011;5727;42.600;23.028;2023-02-28T02:29:30;33.20;;;12.73;;
11344;SDS011;5727;42.600;23.028;2023-02-28T02:32:27;32.03;;;12.13;;
11344;SDS011;5727;42.600;23.028;2023-02-28T02:35:15;38.23;;;12.30;;
11344;SDS011;5727;42.600;23.028;2023-02-28T02:37:50;24.83;;;11.80;;
11344;SDS011;5727;42.600;23.028;2023-02-28T02:40:23;50.63;;;12.50;;
11344;SDS011;5727;42.600;23.028;2023-02-28T02:42:55;23.37;;;11.53;;
11344;SDS011;5727;42.600;23.028;2023-02-28T02:45:27;16.20;;;10.00;;
11344;SDS011;5727;42.600;23.028;2023-02-28T02:48:00;23.93;;;11.03;;
11344;SDS011;5727;42.600;23.028;2023-02-28T02:50:31;22.17;;;12.37;;
11344;SDS011;5727;42.600;23.028;2023-02-28T02:53:02;25.27;;;12.33;;
11344;SDS011;5727;42.600;23.028;2023-02-28T02:55:33;29.73;;;11.83;;
11344;SDS011;5727;42.600;23.028;2023-02-28T02:58:05;39.30;;;12.83;;
11344;SDS011;5727;42.600;23.028;2023-02-28T03:00:37;26.47;;;11.17;;
11344;SDS011;5727;42.600;23.028;2023-02-28T03:03:08;20.90;;;11.97;;
11344;SDS011;5727;42.600;23.028;2023-02-28T03:05:41;23.00;;;13.53;;
11344;SDS011;5727;42.600;23.028;2023-02-28T03:08:12;31.30;;;13.13;;
11344;SDS011;5727;42.600;23.028;2023-02-28T03:10:40;28.13;;;13.67;;
11344;SDS011;5727;42.600;23.028;2023-02-28T03:16:12;20.27;;;12.70;;
11344;SDS011;5727;42.600;23.028;2023-02-28T03:18:57;26.53;;;13.73;;
11344;SDS011;5727;42.600;23.028;2023-02-28T03:21:49;23.97;;;13.90;;
11344;SDS011;5727;42.600;23.028;2023-02-28T03:24:27;28.20;;;14.77;;
11344;SDS011;5727;42.600;23.028;2023-02-28T03:27:03;24.60;;;13.87;;
11344;SDS011;5727;42.600;23.028;2023-02-28T03:29:34;31.63;;;14.60;;
11344;SDS011;5727;42.600;23.028;2023-02-28T03:32:05;29.70;;;14.70;;
11344;SDS011;5727;42.600;23.028;2023-02-28T03:34:40;40.87;;;15.73;;
11344;SDS011;5727;42.600;23.028;2023-02-28T03:37:14;45.17;;;17.07;;
11344;SDS011;5727;42.600;23.028;2023-02-28T03:39:45;38.73;;;16.40;;
11344;SDS011;5727;42.600;23.028;2023-02-28T03:42:15;36.50;;;16.00;;
11344;SDS011;5727;42.600;23.028;2023-02-28T03:44:47;50.03;;;15.70;;
11344;SDS011;5727;42.600;23.028;2023-02-28T03:47:20;34.67;;;15.50;;
11344;SDS011;5727;42.600;23.028;2023-02-28T03:49:52;52.50;;;17.10;;
11344;SDS011;5727;42.600;23.028;2023-02-28T03:52:22;34.17;;;16.13;;
11344;SDS011;5727;42.600;23.028;2023-02-28T03:54:54;30.83;;;15.53;;
11344;SDS011;5727;42.600;23.028;2023-02-28T03:57:27;41.77;;;16.53;;
11344;SDS011;5727;42.600;23.028;2023-02-28T03:59:59;34.67;;;15.33;;
11344;SDS011;5727;42.600;23.028;2023-02-28T04:02:31;33.93;;;14.63;;
11344;SDS011;5727;42.600;23.028;2023-02-28T04:04:58;41.50;;;16.93;;
11344;SDS011;5727;42.600;23.028;2023-02-28T04:07:30;34.23;;;15.07;;
11344;SDS011;5727;42.600;23.028;2023-02-28T04:09:57;32.43;;;14.80;;
11344;SDS011;5727;42.600;23.028;2023-02-28T04:12:24;34.90;;;15.27;;
11344;SDS011;5727;42.600;23.028;2023-02-28T04:14:51;36.57;;;14.17;;
11344;SDS011;5727;42.600;23.028;2023-02-28T04:17:17;32.17;;;16.13;;
11344;SDS011;5727;42.600;23.028;2023-02-28T04:19:44;30.80;;;14.97;;
11344;SDS011;5727;42.600;23.028;2023-02-28T04:22:11;28.33;;;12.87;;
11344;SDS011;5727;42.600;23.028;2023-02-28T04:24:40;38.07;;;12.83;;
11344;SDS011;5727;42.600;23.028;2023-02-28T04:27:07;30.17;;;12.53;;
11344;SDS011;5727;42.600;23.028;2023-02-28T04:29:35;39.90;;;10.93;;
11344;SDS011;5727;42.600;23.028;2023-02-28T04:32:02;32.83;;;12.17;;
11344;SDS011;5727;42.600;23.028;2023-02-28T04:34:30;41.90;;;12.10;;
11344;SDS011;5727;42.600;23.028;2023-02-28T04:36:57;56.80;;;13.13;;
11344;SDS011;5727;42.600;23.028;2023-02-28T04:39:25;44.03;;;13.40;;
11344;SDS011;5727;42.600;23.028;2023-02-28T04:41:53;41.67;;;13.37;;
11344;SDS011;5727;42.600;23.028;2023-02-28T04:44:20;33.90;;;12.00;;
11344;SDS011;5727;42.600;23.028;2023-02-28T04:46:48;30.93;;;12.43;;
11344;SDS011;5727;42.600;23.028;2023-02-28T04:49:15;34.17;;;12.53;;
11344;SDS011;5727;42.600;23.028;2023-02-28T04:51:42;44.37;;;13.80;;
11344;SDS011;5727;42.600;23.028;2023-02-28T04:54:09;42.00;;;13.50;;
11344;SDS011;5727;42.600;23.028;2023-02-28T04:56:35;48.07;;;13.03;;
11344;SDS011;5727;42.600;23.028;2023-02-28T04:59:03;37.97;;;14.10;;
11344;SDS011;5727;42.600;23.028;2023-02-28T05:01:31;37.23;;;13.30;;
11344;SDS011;5727;42.600;23.028;2023-02-28T05:04:01;43.10;;;15.70;;
11344;SDS011;5727;42.600;23.028;2023-02-28T05:06:29;45.93;;;13.90;;
11344;SDS011;5727;42.600;23.028;2023-02-28T05:08:57;43.27;;;14.53;;
11344;SDS011;5727;42.600;23.028;2023-02-28T05:11:25;43.97;;;15.03;;
11344;SDS011;5727;42.600;23.028;2023-02-28T05:13:54;42.43;;;13.77;;
11344;SDS011;5727;42.600;23.028;2023-02-28T05:16:22;36.83;;;12.30;;
11344;SDS011;5727;42.600;23.028;2023-02-28T05:18:49;25.73;;;12.40;;
11344;SDS011;5727;42.600;23.028;2023-02-28T05:21:26;26.73;;;12.70;;
11344;SDS011;5727;42.600;23.028;2023-02-28T05:23:56;26.43;;;12.80;;
11344;SDS011;5727;42.600;23.028;2023-02-28T05:26:24;24.70;;;12.70;;
11344;SDS011;5727;42.600;23.028;2023-02-28T05:28:52;53.83;;;13.77;;
11344;SDS011;5727;42.600;23.028;2023-02-28T05:31:18;37.87;;;13.83;;
11344;SDS011;5727;42.600;23.028;2023-02-28T05:33:47;77.43;;;13.77;;
11344;SDS011;5727;42.600;23.028;2023-02-28T05:36:14;24.80;;;11.30;;
11344;SDS011;5727;42.600;23.028;2023-02-28T05:38:41;21.40;;;11.57;;
11344;SDS011;5727;42.600;23.028;2023-02-28T05:41:08;30.57;;;15.40;;
11344;SDS011;5727;42.600;23.028;2023-02-28T05:43:36;36.57;;;16.40;;
11344;SDS011;5727;42.600;23.028;2023-02-28T05:46:04;30.97;;;16.43;;
11344;SDS011;5727;42.600;23.028;2023-02-28T05:48:31;35.60;;;15.73;;
11344;SDS011;5727;42.600;23.028;2023-02-28T05:51:00;28.93;;;16.07;;
11344;SDS011;5727;42.600;23.028;2023-02-28T05:53:27;35.13;;;16.77;;
11344;SDS011;5727;42.600;23.028;2023-02-28T05:55:55;39.07;;;16.33;;
11344;SDS011;5727;42.600;23.028;2023-02-28T05:58:21;35.13;;;16.40;;
11344;SDS011;5727;42.600;23.028;2023-02-28T06:00:50;33.33;;;17.60;;
11344;SDS011;5727;42.600;23.028;2023-02-28T06:03:17;37.13;;;17.80;;
11344;SDS011;5727;42.600;23.028;2023-02-28T06:05:44;44.53;;;16.97;;
11344;SDS011;5727;42.600;23.028;2023-02-28T06:08:12;38.17;;;17.10;;
11344;SDS011;5727;42.600;23.028;2023-02-28T06:10:38;32.27;;;17.03;;
11344;SDS011;5727;42.600;23.028;2023-02-28T06:13:05;36.50;;;17.37;;
11344;SDS011;5727;42.600;23.028;2023-02-28T06:15:32;35.10;;;17.97;;
11344;SDS011;5727;42.600;23.028;2023-02-28T06:17:59;45.37;;;23.47;;
11344;SDS011;5727;42.600;23.028;2023-02-28T06:20:26;42.47;;;23.83;;
11344;SDS011;5727;42.600;23.028;2023-02-28T06:22:54;39.53;;;21.07;;
11344;SDS011;5727;42.600;23.028;2023-02-28T06:25:24;35.63;;;19.87;;
11344;SDS011;5727;42.600;23.028;2023-02-28T06:27:52;30.50;;;16.83;;
11344;SDS011;5727;42.600;23.028;2023-02-28T06:30:19;40.73;;;19.83;;
11344;SDS011;5727;42.600;23.028;2023-02-28T06:32:48;32.50;;;17.50;;
11344;SDS011;5727;42.600;23.028;2023-02-28T06:35:15;31.93;;;16.70;;
11344;SDS011;5727;42.600;23.028;2023-02-28T06:37:42;31.23;;;17.00;;
11344;SDS011;5727;42.600;23.028;2023-02-28T06:40:10;34.43;;;17.70;;
11344;SDS011;5727;42.600;23.028;2023-02-28T06:42:39;35.10;;;17.37;;
11344;SDS011;5727;42.600;23.028;2023-02-28T06:45:06;26.83;;;17.17;;
11344;SDS011;5727;42.600;23.028;2023-02-28T06:47:34;35.67;;;18.60;;
11344;SDS011;5727;42.600;23.028;2023-02-28T06:50:01;32.10;;;18.93;;
11344;SDS011;5727;42.600;23.028;2023-02-28T06:52:28;35.03;;;19.13;;
11344;SDS011;5727;42.600;23.028;2023-02-28T06:55:01;36.57;;;20.53;;
11344;SDS011;5727;42.600;23.028;2023-02-28T06:57:28;41.97;;;21.37;;
11344;SDS011;5727;42.600;23.028;2023-02-28T06:59:58;47.80;;;24.90;;
11344;SDS011;5727;42.600;23.028;2023-02-28T07:02:25;47.43;;;24.47;;
11344;SDS011;5727;42.600;23.028;2023-02-28T07:04:52;45.57;;;23.20;;
11344;SDS011;5727;42.600;23.028;2023-02-28T07:07:19;43.97;;;22.60;;
11344;SDS011;5727;42.600;23.028;2023-02-28T07:09:46;36.43;;;18.27;;
11344;SDS011;5727;42.600;23.028;2023-02-28T07:12:13;24.10;;;15.23;;
11344;SDS011;5727;42.600;23.028;2023-02-28T07:14:39;33.07;;;16.03;;
11344;SDS011;5727;42.600;23.028;2023-02-28T07:17:08;26.93;;;14.63;;
11344;SDS011;5727;42.600;23.028;2023-02-28T07:19:37;30.50;;;16.00;;
11344;SDS011;5727;42.600;23.028;2023-02-28T07:22:03;21.73;;;12.97;;
11344;SDS011;5727;42.600;23.028;2023-02-28T07:24:30;23.97;;;12.67;;
11344;SDS011;5727;42.600;23.028;2023-02-28T07:26:57;19.27;;;12.10;;
11344;SDS011;5727;42.600;23.028;2023-02-28T07:29:24;23.33;;;12.43;;
11344;SDS011;5727;42.600;23.028;2023-02-28T07:31:51;22.33;;;12.73;;
11344;SDS011;5727;42.600;23.028;2023-02-28T07:34:19;16.37;;;11.83;;
11344;SDS011;5727;42.600;23.028;2023-02-28T07:36:46;18.47;;;12.30;;
11344;SDS011;5727;42.600;23.028;2023-02-28T07:39:13;16.63;;;11.43;;
11344;SDS011;5727;42.600;23.028;2023-02-28T07:41:40;14.80;;;9.83;;
11344;SDS011;5727;42.600;23.028;2023-02-28T07:44:09;17.30;;;9.57;;
11344;SDS011;5727;42.600;23.028;2023-02-28T07:46:36;16.77;;;9.90;;
11344;SDS011;5727;42.600;23.028;2023-02-28T07:49:03;14.27;;;10.07;;
11344;SDS011;5727;42.600;23.028;2023-02-28T07:51:32;19.90;;;10.37;;
11344;SDS011;5727;42.600;23.028;2023-02-28T07:53:59;14.50;;;9.60;;
11344;SDS011;5727;42.600;23.028;2023-02-28T07:56:26;14.87;;;10.27;;
11344;SDS011;5727;42.600;23.028;2023-02-28T07:58:52;16.63;;;10.87;;
11344;SDS011;5727;42.600;23.028;2023-02-28T08:01:20;16.30;;;10.80;;
11344;SDS011;5727;42.600;23.028;2023-02-28T08:03:46;19.03;;;11.50;;
11344;SDS011;5727;42.600;23.028;2023-02-28T08:06:17;17.90;;;11.40;;
11344;SDS011;5727;42.600;23.028;2023-02-28T08:08:47;15.33;;;10.83;;
11344;SDS011;5727;42.600;23.028;2023-02-28T08:11:15;18.00;;;11.13;;
11344;SDS011;5727;42.600;23.028;2023-02-28T08:13:42;16.00;;;11.47;;
11344;SDS011;5727;42.600;23.028;2023-02-28T08:16:09;19.30;;;10.23;;
11344;SDS011;5727;42.600;23.028;2023-02-28T08:18:37;18.10;;;11.47;;
11344;SDS011;5727;42.600;23.028;2023-02-28T08:21:06;16.93;;;10.00;;
11344;SDS011;5727;42.600;23.028;2023-02-28T08:23:33;16.43;;;10.17;;
11344;SDS011;5727;42.600;23.028;2023-02-28T08:26:02;18.27;;;11.80;;
11344;SDS011;5727;42.600;23.028;2023-02-28T08:28:30;21.10;;;11.20;;
11344;SDS011;5727;42.600;23.028;2023-02-28T08:30:57;16.93;;;11.33;;
11344;SDS011;5727;42.600;23.028;2023-02-28T08:33:24;20.67;;;11.97;;
11344;SDS011;5727;42.600;23.028;2023-02-28T08:35:52;19.97;;;11.87;;
11344;SDS011;5727;42.600;23.028;2023-02-28T08:38:20;20.43;;;12.33;;
11344;SDS011;5727;42.600;23.028;2023-02-28T08:40:47;28.77;;;15.67;;
11344;SDS011;5727;42.600;23.028;2023-02-28T08:43:15;22.40;;;14.13;;
11344;SDS011;5727;42.600;23.028;2023-02-28T08:45:42;22.00;;;13.33;;
11344;SDS011;5727;42.600;23.028;2023-02-28T08:48:08;19.37;;;11.73;;
11344;SDS011;5727;42.600;23.028;2023-02-28T08:50:35;16.57;;;10.27;;
11344;SDS011;5727;42.600;23.028;2023-02-28T08:53:02;18.40;;;10.30;;
11344;SDS011;5727;42.600;23.028;2023-02-28T08:55:28;16.73;;;11.13;;
11344;SDS011;5727;42.600;23.028;2023-02-28T08:57:55;14.83;;;10.00;;
11344;SDS011;5727;42.600;23.028;2023-02-28T09:00:24;15.00;;;9.80;;
11344;SDS011;5727;42.600;23.028;2023-02-28T09:02:51;18.77;;;10.90;;
11344;SDS011;5727;42.600;23.028;2023-02-28T09:05:19;20.03;;;11.03;;
11344;SDS011;5727;42.600;23.028;2023-02-28T09:07:46;14.83;;;9.70;;
11344;SDS011;5727;42.600;23.028;2023-02-28T09:10:13;13.53;;;8.53;;
11344;SDS011;5727;42.600;23.028;2023-02-28T09:12:39;14.27;;;8.67;;
11344;SDS011;5727;42.600;23.028;2023-02-28T09:15:07;15.57;;;9.97;;
11344;SDS011;5727;42.600;23.028;2023-02-28T09:17:35;17.53;;;11.47;;
11344;SDS011;5727;42.600;23.028;2023-02-28T09:20:02;27.33;;;16.90;;
11344;SDS011;5727;42.600;23.028;2023-02-28T09:22:29;26.80;;;16.43;;
11344;SDS011;5727;42.600;23.028;2023-02-28T09:24:56;20.23;;;13.37;;
11344;SDS011;5727;42.600;23.028;2023-02-28T09:27:22;24.17;;;15.07;;
11344;SDS011;5727;42.600;23.028;2023-02-28T09:29:49;23.53;;;16.60;;
11344;SDS011;5727;42.600;23.028;2023-02-28T09:32:16;23.23;;;16.47;;
11344;SDS011;5727;42.600;23.028;2023-02-28T09:34:44;26.13;;;17.03;;
11344;SDS011;5727;42.600;23.028;2023-02-28T09:37:11;30.87;;;19.13;;
11344;SDS011;5727;42.600;23.028;2023-02-28T09:39:37;26.33;;;17.93;;
11344;SDS011;5727;42.600;23.028;2023-02-28T09:42:04;22.93;;;15.13;;
11344;SDS011;5727;42.600;23.028;2023-02-28T09:44:34;25.83;;;16.60;;
11344;SDS011;5727;42.600;23.028;2023-02-28T09:47:05;27.23;;;16.17;;
11344;SDS011;5727;42.600;23.028;2023-02-28T09:49:40;28.17;;;16.27;;
11344;SDS011;5727;42.600;23.028;2023-02-28T09:52:10;23.97;;;16.23;;
11344;SDS011;5727;42.600;23.028;2023-02-28T09:54:42;26.30;;;16.60;;
11344;SDS011;5727;42.600;23.028;2023-02-28T09:57:13;25.10;;;16.50;;
11344;SDS011;5727;42.600;23.028;2023-02-28T09:59:49;27.40;;;16.03;;
11344;SDS011;5727;42.600;23.028;2023-02-28T10:02:38;25.20;;;15.13;;
11344;SDS011;5727;42.600;23.028;2023-02-28T10:05:13;28.37;;;15.43;;
11344;SDS011;5727;42.600;23.028;2023-02-28T10:07:48;31.80;;;15.37;;
11344;SDS011;5727;42.600;23.028;2023-02-28T10:10:25;28.50;;;17.13;;
11344;SDS011;5727;42.600;23.028;2023-02-28T10:12:56;24.17;;;15.37;;
11344;SDS011;5727;42.600;23.028;2023-02-28T10:15:25;27.70;;;13.97;;
11344;SDS011;5727;42.600;23.028;2023-02-28T10:17:56;25.47;;;14.93;;
11344;SDS011;5727;42.600;23.028;2023-02-28T10:20:26;28.07;;;18.37;;
11344;SDS011;5727;42.600;23.028;2023-02-28T10:23:02;23.63;;;14.57;;
11344;SDS011;5727;42.600;23.028;2023-02-28T10:25:32;28.80;;;15.20;;
11344;SDS011;5727;42.600;23.028;2023-02-28T10:28:01;25.20;;;15.10;;
11344;SDS011;5727;42.600;23.028;2023-02-28T10:30:36;29.10;;;15.17;;
11344;SDS011;5727;42.600;23.028;2023-02-28T10:33:05;29.80;;;16.43;;
11344;SDS011;5727;42.600;23.028;2023-02-28T10:35:32;24.50;;;16.53;;
11344;SDS011;5727;42.600;23.028;2023-02-28T10:37:59;26.60;;;16.30;;
11344;SDS011;5727;42.600;23.028;2023-02-28T10:40:38;24.87;;;16.87;;
11344;SDS011;5727;42.600;23.028;2023-02-28T10:43:11;31.40;;;16.53;;
11344;SDS011;5727;42.600;23.028;2023-02-28T10:45:52;28.10;;;16.47;;
11344;SDS011;5727;42.600;23.028;2023-02-28T10:48:36;34.30;;;18.90;;
11344;SDS011;5727;42.600;23.028;2023-02-28T10:51:04;30.33;;;17.43;;
11344;SDS011;5727;42.600;23.028;2023-02-28T10:53:39;27.77;;;15.77;;
11344;SDS011;5727;42.600;23.028;2023-02-28T10:56:15;27.93;;;17.20;;
11344;SDS011;5727;42.600;23.028;2023-02-28T10:58:51;31.70;;;17.50;;
11344;SDS011;5727;42.600;23.028;2023-02-28T11:01:21;28.17;;;17.30;;
11344;SDS011;5727;42.600;23.028;2023-02-28T11:03:51;29.50;;;18.17;;
11344;SDS011;5727;42.600;23.028;2023-02-28T11:06:19;30.37;;;17.13;;
11344;SDS011;5727;42.600;23.028;2023-02-28T11:08:50;27.90;;;17.13;;
11344;SDS011;5727;42.600;23.028;2023-02-28T11:11:18;27.73;;;18.20;;
11344;SDS011;5727;42.600;23.028;2023-02-28T11:13:48;30.03;;;18.40;;
11344;SDS011;5727;42.600;23.028;2023-02-28T11:16:19;26.67;;;18.23;;
11344;SDS011;5727;42.600;23.028;2023-02-28T11:18:47;30.10;;;18.50;;
11344;SDS011;5727;42.600;23.028;2023-02-28T11:21:18;31.40;;;18.83;;
11344;SDS011;5727;42.600;23.028;2023-02-28T11:23:51;30.00;;;18.93;;
11344;SDS011;5727;42.600;23.028;2023-02-28T11:26:37;36.30;;;20.90;;
11344;SDS011;5727;42.600;23.028;2023-02-28T11:29:09;39.17;;;20.17;;
11344;SDS011;5727;42.600;23.028;2023-02-28T11:31:39;38.47;;;29.40;;
11344;SDS011;5727;42.600;23.028;2023-02-28T11:36:53;33.13;;;20.57;;
11344;SDS011;5727;42.600;23.028;2023-02-28T11:39:23;39.33;;;20.80;;
11344;SDS011;5727;42.600;23.028;2023-02-28T11:41:54;31.10;;;19.80;;
11344;SDS011;5727;42.600;23.028;2023-02-28T11:44:36;32.20;;;20.37;;
11344;SDS011;5727;42.600;23.028;2023-02-28T11:47:12;32.53;;;20.47;;
11344;SDS011;5727;42.600;23.028;2023-02-28T11:49:48;36.17;;;22.03;;
11344;SDS011;5727;42.600;23.028;2023-02-28T11:52:33;37.33;;;21.40;;
11344;SDS011;5727;42.600;23.028;2023-02-28T11:55:11;37.50;;;22.03;;
11344;SDS011;5727;42.600;23.028;2023-02-28T11:57:49;37.93;;;21.90;;
11344;SDS011;5727;42.600;23.028;2023-02-28T12:00:39;37.37;;;22.50;;
11344;SDS011;5727;42.600;23.028;2023-02-28T12:03:16;31.40;;;20.27;;
11344;SDS011;5727;42.600;23.028;2023-02-28T12:05:54;32.57;;;20.63;;
11344;SDS011;5727;42.600;23.028;2023-02-28T12:08:32;33.13;;;21.03;;
11344;SDS011;5727;42.600;23.028;2023-02-28T12:11:13;34.80;;;20.87;;
11344;SDS011;5727;42.600;23.028;2023-02-28T12:13:46;36.43;;;20.97;;
11344;SDS011;5727;42.600;23.028;2023-02-28T12:16:34;39.57;;;22.63;;
11344;SDS011;5727;42.600;23.028;2023-02-28T12:19:16;40.50;;;23.30;;
11344;SDS011;5727;42.600;23.028;2023-02-28T12:21:57;37.80;;;22.27;;
11344;SDS011;5727;42.600;23.028;2023-02-28T12:24:39;34.83;;;21.17;;
11344;SDS011;5727;42.600;23.028;2023-02-28T12:27:19;29.63;;;19.57;;
11344;SDS011;5727;42.600;23.028;2023-02-28T12:29:49;36.17;;;20.17;;
11344;SDS011;5727;42.600;23.028;2023-02-28T12:32:21;33.23;;;19.37;;
11344;SDS011;5727;42.600;23.028;2023-02-28T12:34:55;36.20;;;20.93;;
11344;SDS011;5727;42.600;23.028;2023-02-28T12:37:27;43.27;;;21.20;;
11344;SDS011;5727;42.600;23.028;2023-02-28T12:40:00;33.80;;;20.77;;
11344;SDS011;5727;42.600;23.028;2023-02-28T12:42:32;36.10;;;20.17;;
11344;SDS011;5727;42.600;23.028;2023-02-28T12:45:04;35.53;;;19.70;;
11344;SDS011;5727;42.600;23.028;2023-02-28T12:47:37;38.13;;;20.40;;
11344;SDS011;5727;42.600;23.028;2023-02-28T12:50:07;34.87;;;20.10;;
11344;SDS011;5727;42.600;23.028;2023-02-28T12:52:39;32.20;;;19.97;;
11344;SDS011;5727;42.600;23.028;2023-02-28T12:55:27;32.50;;;20.20;;
11344;SDS011;5727;42.600;23.028;2023-02-28T12:58:05;33.27;;;19.87;;
11344;SDS011;5727;42.600;23.028;2023-02-28T13:00:43;27.43;;;18.33;;
11344;SDS011;5727;42.600;23.028;2023-02-28T13:03:40;29.40;;;17.57;;
11344;SDS011;5727;42.600;23.028;2023-02-28T13:06:20;32.07;;;19.00;;
11344;SDS011;5727;42.600;23.028;2023-02-28T13:09:12;31.93;;;19.50;;
11344;SDS011;5727;42.600;23.028;2023-02-28T13:11:41;35.77;;;20.23;;
11344;SDS011;5727;42.600;23.028;2023-02-28T13:14:22;37.40;;;20.37;;
11344;SDS011;5727;42.600;23.028;2023-02-28T13:16:58;31.53;;;18.90;;
11344;SDS011;5727;42.600;23.028;2023-02-28T13:19:29;30.53;;;19.53;;
11344;SDS011;5727;42.600;23.028;2023-02-28T13:21:58;34.20;;;21.33;;
11344;SDS011;5727;42.600;23.028;2023-02-28T13:24:45;33.20;;;20.53;;
11344;SDS011;5727;42.600;23.028;2023-02-28T13:27:21;37.17;;;19.33;;
11344;SDS011;5727;42.600;23.028;2023-02-28T13:30:00;34.20;;;17.93;;
11344;SDS011;5727;42.600;23.028;2023-02-28T13:32:32;36.43;;;19.17;;
11344;SDS011;5727;42.600;23.028;2023-02-28T13:38:09;32.60;;;18.00;;
11344;SDS011;5727;42.600;23.028;2023-02-28T13:40:42;30.80;;;18.37;;
11344;SDS011;5727;42.600;23.028;2023-02-28T13:43:09;28.47;;;18.03;;
11344;SDS011;5727;42.600;23.028;2023-02-28T13:45:37;31.50;;;19.50;;
11344;SDS011;5727;42.600;23.028;2023-02-28T13:48:14;34.30;;;18.77;;
11344;SDS011;5727;42.600;23.028;2023-02-28T13:50:43;35.00;;;19.20;;
11344;SDS011;5727;42.600;23.028;2023-02-28T13:53:27;33.30;;;20.13;;
11344;SDS011;5727;42.600;23.028;2023-02-28T13:56:09;28.83;;;19.37;;
11344;SDS011;5727;42.600;23.028;2023-02-28T13:58:54;30.13;;;17.77;;
11344;SDS011;5727;42.600;23.028;2023-02-28T14:01:44;26.57;;;16.23;;
11344;SDS011;5727;42.600;23.028;2023-02-28T14:07:32;32.43;;;17.90;;
11344;SDS011;5727;42.600;23.028;2023-02-28T14:10:15;30.57;;;16.83;;
11344;SDS011;5727;42.600;23.028;2023-02-28T14:12:53;29.73;;;16.53;;
11344;SDS011;5727;42.600;23.028;2023-02-28T14:15:44;29.07;;;16.90;;
11344;SDS011;5727;42.600;23.028;2023-02-28T14:18:20;24.77;;;13.80;;
11344;SDS011;5727;42.600;23.028;2023-02-28T14:20:54;24.07;;;13.17;;
11344;SDS011;5727;42.600;23.028;2023-02-28T14:23:34;27.87;;;12.70;;
11344;SDS011;5727;42.600;23.028;2023-02-28T14:26:16;23.63;;;11.70;;
11344;SDS011;5727;42.600;23.028;2023-02-28T14:29:00;18.37;;;10.90;;
11344;SDS011;5727;42.600;23.028;2023-02-28T14:31:38;22.57;;;11.83;;
11344;SDS011;5727;42.600;23.028;2023-02-28T14:34:20;20.87;;;11.40;;
11344;SDS011;5727;42.600;23.028;2023-02-28T14:37:01;17.97;;;10.87;;
11344;SDS011;5727;42.600;23.028;2023-02-28T14:39:29;22.93;;;10.97;;
11344;SDS011;5727;42.600;23.028;2023-02-28T14:41:58;21.97;;;11.83;;
11344;SDS011;5727;42.600;23.028;2023-02-28T14:44:29;22.27;;;11.80;;
11344;SDS011;5727;42.600;23.028;2023-02-28T14:46:57;18.87;;;12.30;;
11344;SDS011;5727;42.600;23.028;2023-02-28T14:49:31;19.20;;;11.63;;
11344;SDS011;5727;42.600;23.028;2023-02-28T14:52:02;19.57;;;11.67;;
11344;SDS011;5727;42.600;23.028;2023-02-28T14:54:34;29.43;;;12.13;;
11344;SDS011;5727;42.600;23.028;2023-02-28T14:57:02;20.93;;;12.20;;
11344;SDS011;5727;42.600;23.028;2023-02-28T14:59:30;23.37;;;12.60;;